CN46 weather

The McConnell Foundation Heliport
Redding, California, United States

Public forecast

Using degrees Fahrenheit for public forecast. Weather courtesy of forecast.io.

Closest aviation weather report (METAR) to The McConnell Foundation Heliport

Closest report is Redding Municipal Airport, 5.6 nm (10.5 km) SSE. Retrieved 2019/10/14 04:53 UTC (27 minutes ago):

KRDD 140453Z AUTO 00000KT 10SM CLR 13/M02 A2985 RMK AO2 SLP106 T01281017

Closest aviation forecast (TAF) to The McConnell Foundation Heliport

Closest forecast is Redding Municipal Airport, 5.6 nm (10.5 km) SSE. Retrieved 2019-10-14 00:27 UTC (5 hours ago):

TAF KRDD 132324Z 1400/1424 VRB04KT P6SM SKC